createdAt,value
2023-04-12T00:00:15.494Z,91.67
2023-04-12T00:01:18.675Z,91.09
2023-04-12T00:02:21.131Z,91.04
2023-04-12T00:03:25.404Z,91.14
2023-04-12T00:04:28.803Z,91.37
2023-04-12T00:05:33.267Z,91.69
2023-04-12T00:06:36.294Z,91.46
2023-04-12T00:07:39.515Z,91.30
2023-04-12T00:08:42.847Z,91.84
2023-04-12T00:09:45.916Z,91.16
2023-04-12T00:10:49.297Z,91.48
2023-04-12T00:11:52.378Z,91.45
2023-04-12T00:12:54.497Z,91.36
2023-04-12T00:13:57.752Z,91.37
2023-04-12T00:15:01.386Z,91.74
2023-04-12T00:16:04.536Z,91.41
2023-04-12T00:17:06.743Z,91.30
2023-04-12T00:18:09.948Z,91.51
2023-04-12T00:19:11.947Z,91.43
2023-04-12T00:20:16.540Z,91.09
2023-04-12T00:21:19.762Z,91.04
2023-04-12T00:22:22.753Z,90.64
2023-04-12T00:23:24.929Z,90.72
2023-04-12T00:24:28.385Z,90.68
2023-04-12T00:25:30.729Z,90.98
2023-04-12T00:26:35.749Z,90.59
2023-04-12T00:27:39.277Z,91.10
2023-04-12T00:28:42.555Z,90.76
2023-04-12T00:29:44.527Z,90.70
2023-04-12T00:30:48.574Z,90.55
2023-04-12T00:31:50.650Z,91.11
2023-04-12T00:32:53.611Z,91.14
2023-04-12T00:33:55.888Z,90.57
2023-04-12T00:34:59.040Z,91.07
2023-04-12T00:36:01.087Z,90.68
2023-04-12T00:37:04.241Z,90.91
2023-04-12T00:38:10.645Z,90.81
2023-04-12T00:39:14.253Z,91.16
2023-04-12T00:40:16.547Z,91.24
2023-04-12T00:41:19.417Z,90.46
2023-04-12T00:42:22.932Z,91.18
2023-04-12T00:43:27.805Z,90.87
2023-04-12T00:44:29.671Z,91.14
2023-04-12T00:45:32.683Z,90.68
2023-04-12T00:46:35.573Z,91.23
2023-04-12T00:47:39.052Z,90.89
2023-04-12T00:48:41.531Z,91.26
2023-04-12T00:49:44.797Z,91.01
2023-04-12T00:50:47.560Z,91.09
2023-04-12T00:51:51.487Z,90.68
2023-04-12T00:52:59.835Z,90.81
2023-04-12T00:54:03.658Z,91.03
2023-04-12T00:55:07.296Z,91.27
2023-04-12T00:56:11.897Z,90.90
2023-04-12T00:57:14.037Z,90.51
2023-04-12T00:58:18.547Z,91.01
2023-04-12T00:59:20.701Z,90.95
2023-04-12T01:00:27.592Z,90.84
2023-04-12T01:01:29.619Z,90.19
2023-04-12T01:02:33.707Z,90.87
2023-04-12T01:03:43.281Z,90.67
2023-04-12T01:04:50.691Z,90.73
2023-04-12T01:06:04.384Z,90.05
2023-04-12T01:07:15.828Z,90.47
2023-04-12T01:08:26.044Z,90.47
2023-04-12T01:09:35.073Z,90.39
2023-04-12T01:10:43.865Z,90.55
2023-04-12T01:12:02.279Z,90.44
2023-04-12T01:13:14.393Z,90.58
2023-04-12T01:14:23.834Z,90.34
2023-04-12T01:15:26.783Z,90.29
2023-04-12T01:16:33.428Z,90.13
2023-04-12T01:17:40.249Z,90.39
2023-04-12T01:18:50.432Z,90.46
2023-04-12T01:19:57.931Z,90.16
2023-04-12T01:21:05.373Z,90.10
2023-04-12T01:22:13.748Z,90.24
2023-04-12T01:23:44.852Z,90.28
2023-04-12T01:24:53.044Z,90.36
2023-04-12T01:26:22.211Z,90.25
2023-04-12T01:27:36.415Z,90.56
2023-04-12T01:28:42.400Z,90.57
2023-04-12T01:29:49.978Z,90.23
2023-04-12T01:30:54.477Z,90.52
2023-04-12T01:31:59.594Z,90.98
2023-04-12T01:33:05.199Z,90.68
2023-04-12T01:34:08.630Z,90.66
2023-04-12T01:35:12.124Z,90.43
2023-04-12T01:36:21.072Z,91.13
2023-04-12T01:37:24.337Z,90.79
2023-04-12T01:38:27.318Z,90.39
2023-04-12T01:39:30.872Z,90.34
2023-04-12T01:40:33.257Z,90.46
2023-04-12T01:41:40.955Z,90.71
2023-04-12T01:42:44.464Z,90.84
2023-04-12T01:43:48.739Z,90.34
2023-04-12T01:44:51.628Z,90.20
2023-04-12T01:45:55.078Z,90.43
2023-04-12T01:46:57.387Z,90.42
2023-04-12T01:48:02.577Z,90.08
2023-04-12T01:49:04.871Z,90.03
2023-04-12T01:50:15.915Z,90.84
2023-04-12T01:51:24.019Z,90.36
2023-04-12T01:52:28.383Z,90.38
2023-04-12T01:53:35.457Z,90.02
2023-04-12T01:54:40.122Z,90.33
2023-04-12T01:55:45.838Z,90.54
2023-04-12T01:56:52.529Z,90.50
2023-04-12T01:57:57.977Z,90.20
2023-04-12T01:59:04.202Z,90.16
2023-04-12T02:00:10.832Z,90.13
2023-04-12T02:01:17.138Z,90.45
2023-04-12T02:02:19.394Z,90.47
2023-04-12T02:03:32.278Z,90.18
2023-04-12T02:04:37.739Z,90.73
2023-04-12T02:05:41.006Z,90.56
2023-04-12T02:06:43.772Z,89.93
2023-04-12T02:07:47.754Z,90.45
2023-04-12T02:08:57.601Z,90.05
2023-04-12T02:10:00.765Z,89.85
2023-04-12T02:11:08.527Z,90.08
2023-04-12T02:12:11.560Z,90.04
2023-04-12T02:13:14.997Z,89.69
2023-04-12T02:14:18.204Z,90.15
2023-04-12T02:15:21.367Z,90.14
2023-04-12T02:16:25.001Z,89.92
2023-04-12T02:17:29.844Z,90.10
2023-04-12T02:18:35.330Z,89.87
2023-04-12T02:19:37.486Z,89.67
2023-04-12T02:20:40.770Z,89.97
2023-04-12T02:21:44.196Z,89.78
2023-04-12T02:22:47.195Z,90.27
2023-04-12T02:23:50.290Z,90.25
2023-04-12T02:24:53.330Z,90.10
2023-04-12T02:25:55.467Z,89.60
2023-04-12T02:26:59.383Z,89.52
2023-04-12T02:28:02.320Z,89.69
2023-04-12T02:29:07.722Z,90.21
2023-04-12T02:30:11.484Z,90.34
2023-04-12T02:31:15.626Z,89.78
2023-04-12T02:32:18.460Z,89.95
2023-04-12T02:33:25.381Z,89.71
2023-04-12T02:34:34.230Z,89.74
2023-04-12T02:35:46.487Z,89.98
2023-04-12T02:36:51.423Z,89.89
2023-04-12T02:37:54.924Z,89.97
2023-04-12T02:38:59.022Z,89.57
2023-04-12T02:40:03.027Z,89.48
2023-04-12T02:41:07.159Z,89.45
2023-04-12T02:42:13.702Z,89.36
2023-04-12T02:43:16.504Z,89.49
2023-04-12T02:44:24.164Z,89.53
2023-04-12T02:45:45.872Z,89.59
2023-04-12T02:46:48.053Z,89.68
2023-04-12T02:47:52.270Z,89.16
2023-04-12T02:48:58.964Z,89.62
2023-04-12T02:50:12.433Z,89.22
2023-04-12T02:51:26.156Z,89.31
2023-04-12T02:52:30.071Z,89.27
2023-04-12T02:53:41.816Z,89.36
2023-04-12T02:54:54.636Z,89.25
2023-04-12T02:55:57.315Z,89.76
2023-04-12T02:57:03.836Z,89.01
2023-04-12T02:58:13.103Z,89.70
2023-04-12T02:59:25.978Z,89.28
2023-04-12T03:00:48.238Z,89.34
2023-04-12T03:01:53.090Z,89.36
2023-04-12T03:03:01.480Z,89.02
2023-04-12T03:04:06.620Z,89.44
2023-04-12T03:05:23.586Z,89.14
2023-04-12T03:06:28.007Z,89.74
2023-04-12T03:07:32.871Z,89.08
2023-04-12T03:08:36.150Z,89.44
2023-04-12T03:09:40.705Z,89.49
2023-04-12T03:10:43.862Z,89.08
2023-04-12T03:11:46.265Z,89.17
2023-04-12T03:12:49.896Z,89.09
2023-04-12T03:13:56.103Z,89.27
2023-04-12T03:15:01.243Z,88.78
2023-04-12T03:16:22.872Z,89.19
2023-04-12T03:17:31.102Z,89.10
2023-04-12T03:18:33.394Z,89.28
2023-04-12T03:19:36.870Z,89.25
2023-04-12T03:20:43.737Z,89.19
2023-04-12T03:21:48.480Z,88.62
2023-04-12T03:22:50.850Z,88.87
2023-04-12T03:23:54.161Z,89.16
2023-04-12T03:24:56.661Z,88.52
2023-04-12T03:26:02.218Z,88.74
2023-04-12T03:27:11.323Z,88.15
2023-04-12T03:28:14.838Z,88.80
2023-04-12T03:29:29.153Z,89.01
2023-04-12T03:30:34.150Z,88.88
2023-04-12T03:31:36.675Z,88.46
2023-04-12T03:32:43.812Z,88.11
2023-04-12T03:33:46.605Z,88.28
2023-04-12T03:35:00.858Z,88.16
2023-04-12T03:36:03.175Z,88.16
2023-04-12T03:37:08.148Z,88.47
2023-04-12T03:38:16.602Z,88.00
2023-04-12T03:39:20.332Z,88.25
2023-04-12T03:40:26.566Z,88.54
2023-04-12T03:41:34.999Z,87.85
2023-04-12T03:42:39.693Z,87.88
2023-04-12T03:43:51.700Z,88.23
2023-04-12T03:44:55.190Z,88.50
2023-04-12T03:46:21.033Z,87.82
2023-04-12T03:47:33.511Z,88.29
2023-04-12T03:48:43.821Z,87.86
2023-04-12T03:50:06.104Z,88.08
2023-04-12T03:51:31.126Z,88.02
2023-04-12T03:52:39.786Z,87.79
2023-04-12T03:53:42.922Z,88.23
2023-04-12T03:54:50.767Z,88.27
2023-04-12T03:56:04.161Z,87.99
2023-04-12T03:57:08.416Z,87.76
2023-04-12T03:58:16.543Z,88.00
2023-04-12T03:59:20.927Z,87.58
2023-04-12T04:00:37.584Z,87.62
2023-04-12T04:01:54.349Z,87.68
2023-04-12T04:03:03.412Z,87.68
2023-04-12T04:04:21.157Z,87.50
2023-04-12T04:05:33.748Z,88.12
2023-04-12T04:06:38.816Z,88.10
2023-04-12T04:08:04.943Z,87.43
2023-04-12T04:10:08.977Z,87.52
2023-04-12T04:11:14.826Z,87.84
2023-04-12T04:12:22.836Z,87.64
2023-04-12T04:13:29.156Z,87.59
2023-04-12T04:14:36.912Z,87.41
2023-04-12T04:15:40.971Z,87.85
2023-04-12T04:16:44.912Z,87.66
2023-04-12T04:17:49.279Z,87.96
2023-04-12T04:18:55.153Z,87.72
2023-04-12T04:19:59.871Z,88.05
2023-04-12T04:21:03.333Z,87.80
2023-04-12T04:22:10.184Z,87.98
2023-04-12T04:23:12.650Z,88.33
2023-04-12T04:24:18.831Z,87.85
2023-04-12T04:25:30.058Z,87.75
2023-04-12T04:26:38.427Z,88.07
2023-04-12T04:27:52.119Z,87.40
2023-04-12T04:29:01.695Z,87.83
2023-04-12T04:30:10.498Z,87.45
2023-04-12T04:31:18.517Z,87.32
2023-04-12T04:32:25.909Z,87.55
2023-04-12T04:33:36.202Z,87.88
2023-04-12T04:34:40.361Z,87.55
2023-04-12T04:35:49.983Z,87.76
2023-04-12T04:36:58.972Z,87.72
2023-04-12T04:38:03.082Z,87.27
2023-04-12T04:39:08.315Z,87.75
2023-04-12T04:40:15.333Z,87.06
2023-04-12T04:41:24.678Z,87.07
2023-04-12T04:42:33.037Z,87.81
2023-04-12T04:43:40.041Z,87.36
2023-04-12T04:44:42.732Z,87.42
2023-04-12T04:45:49.487Z,87.52
2023-04-12T04:47:13.056Z,87.72
2023-04-12T04:48:16.458Z,87.08
2023-04-12T04:49:27.180Z,87.55
2023-04-12T04:50:34.306Z,87.48
2023-04-12T04:51:38.970Z,87.18
2023-04-12T04:52:41.376Z,87.67
2023-04-12T04:53:52.047Z,87.54
2023-04-12T04:54:57.901Z,87.51
2023-04-12T04:56:05.753Z,87.63
2023-04-12T04:57:12.211Z,87.36
2023-04-12T04:58:18.649Z,87.33
2023-04-12T04:59:21.145Z,86.69
2023-04-12T05:00:39.301Z,86.89
2023-04-12T05:01:59.291Z,87.14
2023-04-12T05:03:02.171Z,87.40
2023-04-12T05:04:06.007Z,87.33
2023-04-12T05:05:16.729Z,86.95
2023-04-12T05:06:22.634Z,87.24
2023-04-12T05:07:25.874Z,87.24
2023-04-12T05:08:30.751Z,87.34
2023-04-12T05:09:34.033Z,86.69
2023-04-12T05:10:37.482Z,87.19
2023-04-12T05:11:39.895Z,87.28
2023-04-12T05:12:47.173Z,87.01
2023-04-12T05:13:50.442Z,87.50
2023-04-12T05:15:01.343Z,86.74
2023-04-12T05:16:15.970Z,87.03
2023-04-12T05:17:18.738Z,86.88
2023-04-12T05:18:23.062Z,86.69
2023-04-12T05:19:25.613Z,87.60
2023-04-12T05:20:30.263Z,87.02
2023-04-12T05:21:34.629Z,86.98
2023-04-12T05:22:37.963Z,87.33
2023-04-12T05:23:43.306Z,86.99
2023-04-12T05:25:20.928Z,86.98
2023-04-12T05:26:31.751Z,87.02
2023-04-12T05:27:36.165Z,86.61
2023-04-12T05:28:44.821Z,86.71
2023-04-12T05:29:48.871Z,86.79
2023-04-12T05:30:55.834Z,86.32
2023-04-12T05:32:06.646Z,86.66
2023-04-12T05:33:23.243Z,86.29
2023-04-12T05:34:29.500Z,87.05
2023-04-12T05:35:34.908Z,87.05
2023-04-12T05:36:38.850Z,87.27
2023-04-12T05:37:42.949Z,86.45
2023-04-12T05:38:45.797Z,86.92
2023-04-12T05:39:50.597Z,86.42
2023-04-12T05:40:54.332Z,86.45
2023-04-12T05:41:59.965Z,86.54
2023-04-12T05:43:03.646Z,86.70
2023-04-12T05:44:08.334Z,86.30
2023-04-12T05:45:12.716Z,86.29
2023-04-12T05:46:16.937Z,86.22
2023-04-12T05:47:25.724Z,86.34
2023-04-12T05:48:32.715Z,86.28
2023-04-12T05:49:36.898Z,86.13
2023-04-12T05:50:53.820Z,86.20
2023-04-12T05:51:58.176Z,85.85
2023-04-12T05:53:02.556Z,86.25
2023-04-12T05:54:07.471Z,86.17
2023-04-12T05:55:12.164Z,86.51
2023-04-12T05:56:17.158Z,85.84
2023-04-12T05:57:21.794Z,85.93
2023-04-12T05:58:27.406Z,85.79
2023-04-12T05:59:31.447Z,85.90
2023-04-12T06:00:34.331Z,85.74
2023-04-12T06:01:42.877Z,85.20
2023-04-12T06:02:45.659Z,85.32
2023-04-12T06:03:49.487Z,85.61
2023-04-12T06:04:52.807Z,85.04
2023-04-12T06:05:57.849Z,85.04
2023-04-12T06:07:01.831Z,85.39
2023-04-12T06:08:16.109Z,85.17
2023-04-12T06:09:19.888Z,84.92
2023-04-12T06:10:24.014Z,84.95
2023-04-12T06:11:29.857Z,85.25
2023-04-12T06:12:32.992Z,84.69
2023-04-12T06:13:43.951Z,84.73
2023-04-12T06:14:46.663Z,84.61
2023-04-12T06:15:50.193Z,84.49
2023-04-12T06:16:52.828Z,84.52
2023-04-12T06:17:56.543Z,84.86
2023-04-12T06:18:59.305Z,84.94
2023-04-12T06:20:06.011Z,85.19
2023-04-12T06:21:10.709Z,85.38
2023-04-12T06:22:13.838Z,84.87
2023-04-12T06:23:20.833Z,84.99
2023-04-12T06:24:25.432Z,84.79
2023-04-12T06:25:34.740Z,84.49
2023-04-12T06:26:40.441Z,83.96
2023-04-12T06:28:17.555Z,84.15
2023-04-12T06:29:26.223Z,84.80
2023-04-12T06:30:29.457Z,84.23
2023-04-12T06:31:32.597Z,84.65
2023-04-12T06:32:36.356Z,85.30
2023-04-12T06:33:46.071Z,84.66
2023-04-12T06:34:48.653Z,84.43
2023-04-12T06:35:53.839Z,84.91
2023-04-12T06:36:57.667Z,84.48
2023-04-12T06:38:01.119Z,84.08
2023-04-12T06:39:05.067Z,84.04
2023-04-12T06:40:09.281Z,84.03
2023-04-12T06:41:14.978Z,84.17
2023-04-12T06:42:17.992Z,84.45
2023-04-12T06:43:22.753Z,83.69
2023-04-12T06:44:26.361Z,83.60
2023-04-12T06:45:32.040Z,83.70
2023-04-12T06:46:34.761Z,83.78
2023-04-12T06:47:38.297Z,83.63
2023-04-12T06:48:41.394Z,84.39
2023-04-12T06:49:44.762Z,84.02
2023-04-12T06:50:47.515Z,84.14
2023-04-12T06:51:51.333Z,83.99
2023-04-12T06:52:55.439Z,83.72
2023-04-12T06:53:58.736Z,84.49
2023-04-12T06:55:00.956Z,84.25
2023-04-12T06:56:05.596Z,83.59
2023-04-12T06:57:09.242Z,83.22
2023-04-12T06:58:12.427Z,83.64
2023-04-12T06:59:16.012Z,83.32
2023-04-12T07:00:19.361Z,83.47
2023-04-12T07:01:47.688Z,83.72
2023-04-12T07:02:50.290Z,83.68
2023-04-12T07:03:53.613Z,83.32
2023-04-12T07:04:56.108Z,82.78
2023-04-12T07:06:07.538Z,82.44
2023-04-12T07:07:16.812Z,83.14
2023-04-12T07:08:20.594Z,82.85
2023-04-12T07:09:24.273Z,82.85
2023-04-12T07:10:26.694Z,82.58
2023-04-12T07:11:31.785Z,82.62
2023-04-12T07:12:34.488Z,82.39
2023-04-12T07:13:37.466Z,82.39
2023-04-12T07:14:42.392Z,82.12
2023-04-12T07:15:50.609Z,81.60
2023-04-12T07:16:54.054Z,81.30
2023-04-12T07:17:56.503Z,81.77
2023-04-12T07:19:05.411Z,81.80
2023-04-12T07:20:09.072Z,82.05
2023-04-12T07:21:14.395Z,81.60
2023-04-12T07:22:17.732Z,82.11
2023-04-12T07:23:21.549Z,81.44
2023-04-12T07:24:24.907Z,81.49
2023-04-12T07:25:27.114Z,81.20
2023-04-12T07:26:30.306Z,81.32
2023-04-12T07:27:32.772Z,81.04
2023-04-12T07:28:36.577Z,80.06
2023-04-12T07:29:39.754Z,80.64
2023-04-12T07:30:42.903Z,80.93
2023-04-12T07:31:45.737Z,80.51
2023-04-12T07:32:48.931Z,80.33
2023-04-12T07:33:52.677Z,80.21
2023-04-12T07:34:57.763Z,80.09
2023-04-12T07:36:01.028Z,79.75
2023-04-12T07:37:04.448Z,80.31
2023-04-12T07:38:07.984Z,80.67
2023-04-12T07:39:12.614Z,79.81
2023-04-12T07:40:16.367Z,79.83
2023-04-12T07:41:19.479Z,79.96
2023-04-12T07:42:22.757Z,80.30
2023-04-12T07:43:27.618Z,80.23
2023-04-12T07:44:31.560Z,79.12
2023-04-12T07:45:37.246Z,79.29
2023-04-12T07:46:41.948Z,77.80
2023-04-12T07:47:44.941Z,78.50
2023-04-12T07:48:52.237Z,79.04
2023-04-12T07:49:59.046Z,78.58
2023-04-12T07:51:02.464Z,78.12
2023-04-12T07:52:05.034Z,77.61
2023-04-12T07:53:21.466Z,77.10
2023-04-12T07:54:57.848Z,77.47
2023-04-12T07:55:59.963Z,77.94
2023-04-12T07:57:06.674Z,78.10
2023-04-12T07:58:09.845Z,78.16
2023-04-12T07:59:12.854Z,77.31
2023-04-12T08:00:18.106Z,77.76
2023-04-12T08:01:20.550Z,77.74
2023-04-12T08:02:26.067Z,78.03
2023-04-12T08:03:28.583Z,77.42
2023-04-12T08:04:31.702Z,77.34
2023-04-12T08:05:34.008Z,77.17
2023-04-12T08:06:37.625Z,76.18
2023-04-12T08:07:39.631Z,76.73
2023-04-12T08:08:42.521Z,76.53
2023-04-12T08:09:44.747Z,75.64
2023-04-12T08:10:49.332Z,74.96
2023-04-12T08:11:51.710Z,74.84
2023-04-12T08:12:54.887Z,74.98
2023-04-12T08:13:57.381Z,74.55
2023-04-12T08:15:01.764Z,74.32
2023-04-12T08:16:04.524Z,74.75
2023-04-12T08:17:07.718Z,74.64
2023-04-12T08:18:10.207Z,72.99
2023-04-12T08:19:16.374Z,72.02
2023-04-12T08:20:21.839Z,72.62
2023-04-12T08:21:34.960Z,73.35
2023-04-12T08:22:37.568Z,72.94
2023-04-12T08:23:40.790Z,73.51
2023-04-12T08:24:49.979Z,74.86
2023-04-12T08:26:03.105Z,73.18
2023-04-12T08:27:06.301Z,73.67
2023-04-12T08:28:09.271Z,73.63
2023-04-12T08:29:12.610Z,73.98
2023-04-12T08:30:15.730Z,72.86
2023-04-12T08:31:18.222Z,71.82
2023-04-12T08:32:21.721Z,71.17
2023-04-12T08:33:24.784Z,71.51
2023-04-12T08:34:27.818Z,70.43
2023-04-12T08:35:31.196Z,71.19
2023-04-12T08:36:34.372Z,71.59
2023-04-12T08:37:36.656Z,70.98
2023-04-12T08:38:45.787Z,72.05
2023-04-12T08:39:49.410Z,71.06
2023-04-12T08:40:54.957Z,70.34
2023-04-12T08:41:59.852Z,71.32
2023-04-12T08:43:03.489Z,71.10
2023-04-12T08:44:06.775Z,71.27
2023-04-12T08:45:11.796Z,72.26
2023-04-12T08:46:16.493Z,71.50
2023-04-12T08:47:19.569Z,69.42
2023-04-12T08:48:23.636Z,71.80
2023-04-12T08:49:25.611Z,71.53
2023-04-12T08:50:28.498Z,70.13
2023-04-12T08:51:32.235Z,70.47
2023-04-12T08:52:34.239Z,69.44
2023-04-12T08:53:37.137Z,68.24
2023-04-12T08:54:39.267Z,68.27
2023-04-12T08:55:44.904Z,67.51
2023-04-12T08:56:47.196Z,66.30
2023-04-12T08:57:55.107Z,66.44
2023-04-12T08:58:58.417Z,67.02
2023-04-12T09:00:01.359Z,67.42
2023-04-12T09:01:04.956Z,67.80
2023-04-12T09:02:07.001Z,69.24
2023-04-12T09:03:10.641Z,69.47
2023-04-12T09:04:14.951Z,69.11
2023-04-12T09:05:20.545Z,68.76
2023-04-12T09:06:22.501Z,68.13
2023-04-12T09:07:28.037Z,67.73
2023-04-12T09:08:29.978Z,67.92
2023-04-12T09:09:51.306Z,65.63
2023-04-12T09:10:54.896Z,65.81
2023-04-12T09:12:07.000Z,64.62
2023-04-12T09:13:11.495Z,65.12
2023-04-12T09:14:22.067Z,65.05
2023-04-12T09:15:25.125Z,65.29
2023-04-12T09:16:38.862Z,65.35
2023-04-12T09:17:42.707Z,64.63
2023-04-12T09:18:48.576Z,65.44
2023-04-12T09:19:51.974Z,63.72
2023-04-12T09:21:11.899Z,64.18
2023-04-12T09:22:14.709Z,64.47
2023-04-12T09:23:20.139Z,64.47
2023-04-12T09:24:24.501Z,65.17
2023-04-12T09:25:38.607Z,64.92
2023-04-12T09:26:41.939Z,65.64
2023-04-12T09:27:48.046Z,65.56
2023-04-12T09:30:53.532Z,64.53
2023-04-12T09:32:27.502Z,64.27
2023-04-12T09:33:35.818Z,63.71
2023-04-12T09:34:57.151Z,62.51
2023-04-12T09:36:03.237Z,63.23
2023-04-12T09:37:16.468Z,63.23
2023-04-12T09:38:18.886Z,63.16
2023-04-12T09:39:32.092Z,61.90
2023-04-12T09:40:36.373Z,61.05
2023-04-12T09:41:40.060Z,61.73
2023-04-12T09:42:51.994Z,61.36
2023-04-12T09:43:57.370Z,62.23
2023-04-12T09:45:01.849Z,61.58
2023-04-12T09:46:13.960Z,61.83
2023-04-12T09:47:17.373Z,62.82
2023-04-12T09:48:20.727Z,62.67
2023-04-12T09:49:38.986Z,61.31
2023-04-12T09:50:42.760Z,62.81
2023-04-12T09:51:51.822Z,62.41
2023-04-12T09:52:56.542Z,62.38
2023-04-12T09:54:01.448Z,61.89
2023-04-12T09:55:26.442Z,61.02
2023-04-12T09:56:32.444Z,61.37
2023-04-12T09:57:35.265Z,61.49
2023-04-12T09:58:40.284Z,61.45
2023-04-12T09:59:44.713Z,60.29
2023-04-12T10:00:48.576Z,60.43
2023-04-12T10:01:51.556Z,60.06
2023-04-12T10:02:57.198Z,60.20
2023-04-12T10:04:00.737Z,59.87
2023-04-12T10:05:11.085Z,59.93
2023-04-12T10:06:14.639Z,59.61
2023-04-12T10:07:16.896Z,59.57
2023-04-12T10:08:21.003Z,58.24
2023-04-12T10:09:23.873Z,58.62
2023-04-12T10:10:27.591Z,58.27
2023-04-12T10:11:30.323Z,57.47
2023-04-12T10:12:34.749Z,57.29
2023-04-12T10:13:38.622Z,57.18
2023-04-12T10:14:44.914Z,58.00
2023-04-12T10:15:47.576Z,57.27
2023-04-12T10:16:51.085Z,57.33
2023-04-12T10:17:55.301Z,57.05
2023-04-12T10:19:03.880Z,56.07
2023-04-12T10:20:08.005Z,56.23
2023-04-12T10:21:12.480Z,56.39
2023-04-12T10:22:19.651Z,55.98
2023-04-12T10:23:23.186Z,55.33
2023-04-12T10:24:27.629Z,55.24
2023-04-12T10:25:31.134Z,55.47
2023-04-12T10:26:35.571Z,55.10
2023-04-12T10:27:37.875Z,55.31
2023-04-12T10:28:41.215Z,55.23
2023-04-12T10:29:44.657Z,55.98
2023-04-12T10:30:49.607Z,56.35
2023-04-12T10:31:52.315Z,55.38
2023-04-12T10:33:19.595Z,54.43
2023-04-12T10:34:28.686Z,54.93
2023-04-12T10:35:31.373Z,54.57
2023-04-12T10:36:54.612Z,53.29
2023-04-12T10:38:01.046Z,54.58
2023-04-12T10:39:11.616Z,54.54
2023-04-12T10:40:19.186Z,53.92
2023-04-12T10:41:22.867Z,53.48
2023-04-12T10:42:27.257Z,53.47
2023-04-12T10:43:30.523Z,53.20
2023-04-12T10:44:33.770Z,52.38
2023-04-12T10:45:38.795Z,52.39
2023-04-12T10:46:53.833Z,51.36
2023-04-12T10:48:01.414Z,52.31
2023-04-12T10:49:09.180Z,52.75
2023-04-12T10:50:24.575Z,51.46
2023-04-12T10:51:28.801Z,51.67
2023-04-12T10:52:44.907Z,52.35
2023-04-12T10:53:47.333Z,52.28
2023-04-12T10:54:57.247Z,52.70
2023-04-12T10:55:59.580Z,53.29
2023-04-12T10:57:05.396Z,53.20
2023-04-12T10:58:51.909Z,53.49
2023-04-12T10:59:59.437Z,54.00
2023-04-12T11:01:12.484Z,53.91
2023-04-12T11:02:16.699Z,53.62
2023-04-12T11:03:28.440Z,53.65
2023-04-12T11:04:31.686Z,53.40
2023-04-12T11:06:12.682Z,52.08
2023-04-12T11:07:47.389Z,52.86
2023-04-12T11:09:18.634Z,53.38
2023-04-12T11:10:22.034Z,53.91
2023-04-12T11:11:27.536Z,54.05
2023-04-12T11:12:30.738Z,54.62
2023-04-12T11:13:36.048Z,53.73
2023-04-12T11:14:43.783Z,53.85
2023-04-12T11:15:46.113Z,53.12
2023-04-12T11:17:24.885Z,51.53
2023-04-12T11:18:28.289Z,51.64
2023-04-12T11:19:31.384Z,51.16
2023-04-12T11:20:34.583Z,51.23
2023-04-12T11:21:37.268Z,51.56
2023-04-12T11:22:41.440Z,51.54
2023-04-12T11:23:44.543Z,51.89
2023-04-12T11:24:49.623Z,52.19
2023-04-12T11:25:55.810Z,52.79
2023-04-12T11:29:13.831Z,51.37
2023-04-12T11:30:17.203Z,51.22
2023-04-12T11:31:20.610Z,51.59
2023-04-12T11:32:27.709Z,51.97
2023-04-12T11:33:34.449Z,50.87
2023-04-12T11:34:38.044Z,51.02
2023-04-12T11:35:44.692Z,50.34
2023-04-12T11:36:47.842Z,50.43
2023-04-12T11:37:51.305Z,50.51
2023-04-12T11:38:57.023Z,50.24
2023-04-12T11:39:59.575Z,49.91
2023-04-12T11:41:02.745Z,50.16
2023-04-12T11:42:05.025Z,49.78
2023-04-12T11:43:08.239Z,50.07
2023-04-12T11:44:10.251Z,49.01
2023-04-12T11:45:18.100Z,48.10
2023-04-12T11:46:20.931Z,47.85
2023-04-12T11:47:28.679Z,47.41
2023-04-12T11:48:31.111Z,47.50
2023-04-12T11:49:34.461Z,47.36
2023-04-12T11:50:43.131Z,47.40
2023-04-12T11:51:48.991Z,47.00
2023-04-12T11:52:52.918Z,47.11
2023-04-12T11:53:55.531Z,47.10
2023-04-12T11:55:01.978Z,46.59
2023-04-12T11:56:04.574Z,46.39
2023-04-12T11:57:07.667Z,46.05
2023-04-12T11:58:10.583Z,45.69
2023-04-12T11:59:12.574Z,45.13
2023-04-12T12:00:16.869Z,44.61
2023-04-12T12:01:19.990Z,44.50
2023-04-12T12:02:24.601Z,43.85
2023-04-12T12:03:30.365Z,43.62
2023-04-12T12:04:33.127Z,43.52
2023-04-12T12:05:38.499Z,42.92
2023-04-12T12:06:42.220Z,42.98
2023-04-12T12:07:45.351Z,41.97
2023-04-12T12:08:50.186Z,42.15
2023-04-12T12:09:53.664Z,42.30
2023-04-12T12:11:07.167Z,42.16
2023-04-12T12:12:12.263Z,43.19
2023-04-12T12:13:14.835Z,42.40
2023-04-12T12:14:20.314Z,42.13
2023-04-12T12:15:23.497Z,41.54
2023-04-12T12:16:27.992Z,41.64
2023-04-12T12:17:31.900Z,42.49
2023-04-12T12:18:40.106Z,42.56
2023-04-12T12:19:44.814Z,42.40
2023-04-12T12:20:50.952Z,42.99
2023-04-12T12:21:53.032Z,43.23
2023-04-12T12:22:56.115Z,43.75
2023-04-12T12:23:58.761Z,44.04
2023-04-12T12:25:02.392Z,43.58
2023-04-12T12:26:18.447Z,43.93
2023-04-12T12:27:24.613Z,44.24
2023-04-12T12:28:27.369Z,44.58
2023-04-12T12:29:36.703Z,44.76
2023-04-12T12:30:40.331Z,44.63
2023-04-12T12:31:47.615Z,44.63
2023-04-12T12:32:52.371Z,45.36
2023-04-12T12:34:00.265Z,44.94
2023-04-12T12:35:04.673Z,45.30
2023-04-12T12:36:07.645Z,45.17
2023-04-12T12:37:13.509Z,44.59
2023-04-12T12:38:16.856Z,44.65
2023-04-12T12:39:19.022Z,45.04
2023-04-12T12:40:31.613Z,44.93
2023-04-12T12:41:34.332Z,44.65
2023-04-12T12:42:44.710Z,44.52
2023-04-12T12:43:47.696Z,45.13
2023-04-12T12:44:50.180Z,45.12
2023-04-12T12:45:53.413Z,45.54
2023-04-12T12:47:03.366Z,46.10
2023-04-12T12:48:19.337Z,46.22
2023-04-12T12:49:23.040Z,46.22
2023-04-12T12:50:51.320Z,46.50
2023-04-12T12:52:01.407Z,46.98
2023-04-12T12:53:06.045Z,47.20
2023-04-12T12:54:08.068Z,47.24
2023-04-12T12:55:11.126Z,46.97
2023-04-12T12:56:14.221Z,46.91
2023-04-12T12:57:18.038Z,47.15
2023-04-12T12:58:21.419Z,47.47
2023-04-12T12:59:25.476Z,47.69
2023-04-12T13:00:30.021Z,47.36
2023-04-12T13:01:32.665Z,47.04
2023-04-12T13:02:36.009Z,46.74
2023-04-12T13:03:38.592Z,47.25
2023-04-12T13:04:43.937Z,47.06
2023-04-12T13:05:47.201Z,46.77
2023-04-12T13:06:50.580Z,46.93
2023-04-12T13:07:53.201Z,46.19
2023-04-12T13:08:56.491Z,47.04
2023-04-12T13:09:59.256Z,46.14
2023-04-12T13:11:02.348Z,46.13
2023-04-12T13:12:04.594Z,46.22
2023-04-12T13:13:07.600Z,46.28
2023-04-12T13:14:09.757Z,46.45
2023-04-12T13:15:22.063Z,45.69
2023-04-12T13:16:26.798Z,45.53
2023-04-12T13:17:30.689Z,45.13
2023-04-12T13:18:32.921Z,44.04
2023-04-12T13:19:36.282Z,43.90
2023-04-12T13:20:40.097Z,43.72
2023-04-12T13:21:43.230Z,43.49
2023-04-12T13:22:45.457Z,42.74
2023-04-12T13:23:48.659Z,42.94
2023-04-12T13:24:50.900Z,42.38
2023-04-12T13:25:54.061Z,42.28
2023-04-12T13:26:56.173Z,42.08
2023-04-12T13:27:59.062Z,42.49
2023-04-12T13:29:01.401Z,42.54
2023-04-12T13:30:05.143Z,42.62
2023-04-12T13:31:08.347Z,43.19
2023-04-12T13:32:10.778Z,43.14
2023-04-12T13:33:19.195Z,43.20
2023-04-12T13:34:23.606Z,43.82
2023-04-12T13:35:26.938Z,43.27
2023-04-12T13:36:31.001Z,43.17
2023-04-12T13:37:35.645Z,43.30
2023-04-12T13:38:41.763Z,43.94
2023-04-12T13:39:45.783Z,44.36
2023-04-12T13:40:51.850Z,43.97
2023-04-12T13:41:54.803Z,44.26
2023-04-12T13:42:57.984Z,44.22
2023-04-12T13:44:01.050Z,43.88
2023-04-12T13:45:04.639Z,44.37
2023-04-12T13:46:08.187Z,44.79
2023-04-12T13:47:11.192Z,44.77
2023-04-12T13:48:13.148Z,44.67
2023-04-12T13:49:16.163Z,44.79
2023-04-12T13:50:19.184Z,44.64
2023-04-12T13:51:22.028Z,45.01
2023-04-12T13:52:25.436Z,44.97
2023-04-12T13:53:28.260Z,45.27
2023-04-12T13:54:30.740Z,45.52
2023-04-12T13:55:33.740Z,45.11
2023-04-12T13:56:36.649Z,45.70
2023-04-12T13:57:39.580Z,45.85
2023-04-12T13:58:42.759Z,45.88
2023-04-12T13:59:45.829Z,46.21
2023-04-12T14:00:47.790Z,46.18
2023-04-12T14:01:51.000Z,45.70
2023-04-12T14:02:53.079Z,45.66
2023-04-12T14:03:56.974Z,45.53
2023-04-12T14:05:00.632Z,45.48
2023-04-12T14:06:02.769Z,45.62
2023-04-12T14:07:05.867Z,46.33
2023-04-12T14:08:09.382Z,46.17
2023-04-12T14:09:24.147Z,46.48
2023-04-12T14:10:26.969Z,46.50
2023-04-12T14:11:29.206Z,45.58
2023-04-12T14:12:32.709Z,45.74
2023-04-12T14:13:34.557Z,45.48
2023-04-12T14:14:37.863Z,45.63